メインページ
METAR-TAF:

METAR-TAF

空港 :

ブリッジポート, コネチカット州, アメリカ合衆国

緯度: 41-09-30N, 経度: 073-07-44W, 海抜: 3m

現時点の気象観測

当レポートは12分前の09:52(UTC)に作成
西/北西の風 16kt、最大20ktの突風を伴う
気温 -1°C
湿度 43%
気圧 1013 hPa
視程: 16.1km
高度7000ftの雲はほとんどない

METAR: KBDR 230952Z AUTO 30016G20KT 10SM FEW070 M01/M12 A2992 RMK AO2 SLP131 T10111117

時間: 05:04 (10:04 UTC)

予報

当レポートは1時間23分前の08:41(UTC)に作成
予報は23日の 09時(UTC)から 24日の 06時(UTC)まで有効
北西の風 13kt、最大21ktの突風を伴う
視程: 10km
高度4000ftの雲は散在している
高度7000ftの千切れ雲あり
23日の 1200時(UTC)から
西/北西の風 13kt、最大24ktの突風を伴う
視程: 10km
高度4000ftの雲は散在している
高度7000ftの雲は散在している
23日の 1500時(UTC)から
西/北西の風 17kt、最大27ktの突風を伴う
視程: 10km
高度4000ftの雲はほとんどない
高度7000ftの雲は散在している
23日の 1800時(UTC)から
北西の風 20kt、最大30ktの突風を伴う
視程: 10km
高度2500ftの雲は散在している
高度4000ftの雲は散在している
24日の 0500時(UTC)から
北西の風 13kt、最大20ktの突風を伴う
視程: 10km
晴天

TAF: KBDR 230841Z 2309/2406 31013G21KT P6SM SCT040 BKN070 FM231200 29013G24KT P6SM SCT040 SCT070 FM231500 29017G27KT P6SM FEW040 SCT070 FM231800 31020G30KT P6SM SCT025 SCT040 FM240500 31013G20KT P6SM SKC

4,000以上の空港の気象観測と天気予報(METAR報とTAF報)

利用可能な観測所は地図上に黄色い丸と赤い丸で示す。

丸の上にカーソルを重ねると観測所名を参照できる。

次にクリックすると気象観測と天気予報を参照できる。

マップの切り替え:黒色「×」印の緑ボタンをクリックして拡大、「-」印の緑ボタンをクリックして縮小、緑色の三角印をクリックして隣りの地図に切り替え


METAR-TAF: